createdAt,value
2023-03-05T00:00:49.097Z,50.83
2023-03-05T00:01:49.098Z,48.20
2023-03-05T00:02:49.091Z,48.29
2023-03-05T00:03:49.067Z,47.40
2023-03-05T00:04:49.081Z,49.15
2023-03-05T00:05:49.045Z,53.99
2023-03-05T00:06:49.029Z,48.26
2023-03-05T00:07:49.015Z,48.78
2023-03-05T00:08:49.029Z,49.88
2023-03-05T00:09:49.001Z,49.86
2023-03-05T00:10:48.988Z,50.69
2023-03-05T00:11:49.001Z,49.17
2023-03-05T00:12:48.989Z,48.57
2023-03-05T00:13:48.978Z,48.96
2023-03-05T00:14:48.978Z,47.86
2023-03-05T00:15:49.016Z,50.50
2023-03-05T00:16:48.969Z,49.52
2023-03-05T00:17:48.948Z,53.21
2023-03-05T00:18:48.946Z,52.25
2023-03-05T00:19:48.933Z,52.16
2023-03-05T00:20:48.935Z,49.31
2023-03-05T00:21:48.939Z,51.29
2023-03-05T00:22:48.922Z,47.04
2023-03-05T00:23:48.912Z,50.41
2023-03-05T00:24:48.899Z,51.78
2023-03-05T00:25:48.893Z,53.25
2023-03-05T00:26:48.918Z,51.07
2023-03-05T00:27:48.879Z,47.64
2023-03-05T00:28:48.881Z,47.46
2023-03-05T00:29:48.876Z,49.59
2023-03-05T00:30:48.908Z,50.19
2023-03-05T00:31:48.886Z,47.43
2023-03-05T00:32:48.873Z,50.35
2023-03-05T00:33:48.910Z,50.15
2023-03-05T00:34:48.839Z,48.46
2023-03-05T00:35:48.870Z,49.56
2023-03-05T00:36:48.855Z,47.78
2023-03-05T00:37:48.847Z,49.57
2023-03-05T00:38:48.812Z,50.46
2023-03-05T00:39:48.816Z,48.82
2023-03-05T00:40:48.801Z,48.45
2023-03-05T00:41:48.797Z,48.11
2023-03-05T00:42:48.794Z,48.10
2023-03-05T00:43:48.797Z,49.34
2023-03-05T00:44:48.771Z,48.94
2023-03-05T00:45:48.764Z,48.53
2023-03-05T00:46:48.835Z,48.70
2023-03-05T00:47:48.749Z,48.92
2023-03-05T00:48:48.763Z,48.84
2023-03-05T00:49:48.742Z,48.42
2023-03-05T00:50:48.728Z,48.53
2023-03-05T00:51:48.723Z,48.15
2023-03-05T00:52:48.744Z,48.84
2023-03-05T00:53:48.706Z,48.67
2023-03-05T00:54:48.714Z,49.08
2023-03-05T00:55:48.688Z,47.45
2023-03-05T00:56:48.687Z,47.93
2023-03-05T00:57:48.686Z,47.65
2023-03-05T00:58:48.685Z,48.33
2023-03-05T00:59:48.690Z,51.20
2023-03-05T01:00:48.668Z,49.02
2023-03-05T01:01:49.133Z,48.95
2023-03-05T01:02:48.651Z,47.17
2023-03-05T01:03:48.681Z,47.21
2023-03-05T01:04:48.669Z,49.54
2023-03-05T01:05:48.629Z,48.94
2023-03-05T01:06:48.612Z,47.41
2023-03-05T01:07:48.607Z,51.43
2023-03-05T01:08:48.617Z,47.17
2023-03-05T01:09:48.617Z,47.46
2023-03-05T01:10:48.582Z,47.82
2023-03-05T01:11:49.583Z,48.58
2023-03-05T01:12:48.577Z,47.58
2023-03-05T01:13:48.556Z,51.34
2023-03-05T01:14:48.563Z,47.89
2023-03-05T01:15:48.586Z,49.43
2023-03-05T01:16:48.550Z,48.89
2023-03-05T01:17:48.529Z,47.66
2023-03-05T01:18:48.540Z,50.20
2023-03-05T01:19:48.554Z,47.98
2023-03-05T01:20:48.503Z,48.68
2023-03-05T01:21:48.497Z,47.82
2023-03-05T01:22:48.491Z,47.41
2023-03-05T01:23:48.484Z,47.93
2023-03-05T01:24:48.471Z,49.23
2023-03-05T01:25:48.484Z,50.75
2023-03-05T01:26:48.488Z,50.37
2023-03-05T01:27:48.458Z,50.04
2023-03-05T01:28:48.458Z,50.63
2023-03-05T01:29:48.434Z,48.11
2023-03-05T01:30:48.446Z,47.07
2023-03-05T01:31:48.497Z,47.92
2023-03-05T01:32:48.428Z,47.72
2023-03-05T01:33:48.418Z,49.92
2023-03-05T01:34:48.408Z,50.43
2023-03-05T01:35:48.499Z,49.46
2023-03-05T01:36:48.398Z,46.97
2023-03-05T01:37:48.392Z,48.60
2023-03-05T01:38:48.387Z,48.83
2023-03-05T01:39:48.373Z,46.80
2023-03-05T01:40:48.373Z,49.99
2023-03-05T01:41:48.357Z,49.58
2023-03-05T01:42:48.374Z,49.41
2023-03-05T01:43:48.356Z,51.09
2023-03-05T01:44:48.344Z,49.75
2023-03-05T01:45:48.357Z,52.65
2023-03-05T01:46:48.320Z,51.13
2023-03-05T01:47:49.356Z,49.81
2023-03-05T01:48:49.313Z,49.09
2023-03-05T01:49:48.310Z,47.26
2023-03-05T01:50:48.318Z,49.57
2023-03-05T01:51:48.294Z,51.75
2023-03-05T01:52:48.297Z,48.46
2023-03-05T01:53:48.298Z,48.06
2023-03-05T01:54:48.290Z,50.21
2023-03-05T01:55:48.277Z,48.85
2023-03-05T01:56:48.264Z,47.04
2023-03-05T01:57:48.277Z,49.91
2023-03-05T01:58:48.254Z,49.32
2023-03-05T01:59:48.237Z,47.06
2023-03-05T02:00:48.348Z,46.79
2023-03-05T02:01:48.234Z,48.37
2023-03-05T02:02:48.223Z,50.05
2023-03-05T02:03:48.311Z,49.00
2023-03-05T02:04:48.203Z,53.10
2023-03-05T02:05:48.199Z,49.13
2023-03-05T02:06:48.197Z,51.91
2023-03-05T02:07:48.175Z,47.16
2023-03-05T02:08:48.183Z,47.35
2023-03-05T02:09:48.171Z,51.13
2023-03-05T02:10:48.161Z,50.76
2023-03-05T02:11:48.156Z,52.87
2023-03-05T02:12:48.148Z,46.86
2023-03-05T02:13:48.144Z,46.66
2023-03-05T02:14:48.162Z,48.02
2023-03-05T02:15:48.127Z,48.28
2023-03-05T02:16:48.156Z,48.24
2023-03-05T02:17:48.110Z,51.11
2023-03-05T02:18:48.117Z,53.32
2023-03-05T02:19:48.156Z,49.19
2023-03-05T02:20:48.105Z,49.69
2023-03-05T02:21:48.083Z,49.09
2023-03-05T02:22:48.107Z,49.49
2023-03-05T02:23:48.072Z,52.04
2023-03-05T02:24:49.078Z,52.17
2023-03-05T02:25:48.070Z,50.78
2023-03-05T02:26:48.054Z,54.55
2023-03-05T02:27:48.055Z,50.37
2023-03-05T02:28:48.053Z,49.81
2023-03-05T02:29:48.027Z,52.36
2023-03-05T02:30:48.042Z,48.02
2023-03-05T02:31:48.066Z,50.20
2023-03-05T02:32:48.116Z,53.88
2023-03-05T02:33:48.024Z,49.31
2023-03-05T02:34:48.019Z,53.11
2023-03-05T02:35:48.072Z,49.34
2023-03-05T02:36:47.992Z,46.61
2023-03-05T02:37:47.994Z,51.22
2023-03-05T02:38:47.989Z,54.53
2023-03-05T02:39:47.979Z,47.76
2023-03-05T02:40:47.970Z,52.33
2023-03-05T02:41:47.948Z,47.39
2023-03-05T02:42:47.968Z,49.42
2023-03-05T02:43:47.946Z,51.52
2023-03-05T02:44:47.948Z,50.72
2023-03-05T02:45:47.984Z,50.05
2023-03-05T02:46:48.916Z,48.48
2023-03-05T02:47:47.941Z,51.05
2023-03-05T02:48:47.907Z,49.16
2023-03-05T02:49:47.899Z,50.85
2023-03-05T02:50:47.900Z,47.23
2023-03-05T02:51:47.903Z,48.94
2023-03-05T02:52:47.899Z,47.46
2023-03-05T02:53:47.873Z,49.60
2023-03-05T02:54:47.873Z,50.43
2023-03-05T02:55:47.866Z,48.37
2023-03-05T02:56:47.862Z,46.65
2023-03-05T02:57:47.847Z,48.69
2023-03-05T02:58:47.854Z,47.41
2023-03-05T02:59:47.910Z,46.81
2023-03-05T03:00:47.826Z,47.89
2023-03-05T03:01:47.820Z,49.43
2023-03-05T03:02:47.814Z,47.42
2023-03-05T03:03:47.809Z,46.69
2023-03-05T03:04:47.801Z,47.85
2023-03-05T03:05:47.804Z,50.18
2023-03-05T03:06:47.784Z,52.18
2023-03-05T03:07:47.776Z,49.03
2023-03-05T03:08:47.793Z,50.92
2023-03-05T03:09:47.767Z,48.27
2023-03-05T03:10:47.768Z,51.18
2023-03-05T03:11:47.757Z,49.66
2023-03-05T03:12:47.743Z,46.62
2023-03-05T03:13:47.817Z,50.12
2023-03-05T03:14:47.732Z,47.92
2023-03-05T03:15:47.728Z,50.68
2023-03-05T03:16:47.770Z,47.79
2023-03-05T03:17:47.720Z,52.12
2023-03-05T03:18:47.759Z,48.44
2023-03-05T03:19:47.708Z,51.67
2023-03-05T03:20:47.693Z,46.63
2023-03-05T03:21:47.687Z,48.71
2023-03-05T03:22:47.685Z,48.57
2023-03-05T03:23:47.679Z,52.84
2023-03-05T03:24:47.690Z,52.52
2023-03-05T03:25:47.662Z,50.74
2023-03-05T03:26:47.656Z,51.67
2023-03-05T03:27:47.648Z,47.45
2023-03-05T03:28:47.635Z,49.79
2023-03-05T03:29:47.638Z,48.03
2023-03-05T03:30:47.645Z,48.71
2023-03-05T03:31:47.632Z,54.83
2023-03-05T03:32:47.612Z,51.08
2023-03-05T03:33:47.609Z,46.99
2023-03-05T03:34:47.589Z,46.53
2023-03-05T03:35:47.694Z,48.82
2023-03-05T03:36:47.585Z,52.44
2023-03-05T03:37:47.576Z,51.81
2023-03-05T03:38:47.577Z,47.29
2023-03-05T03:39:47.568Z,49.21
2023-03-05T03:40:47.575Z,46.62
2023-03-05T03:41:47.573Z,47.87
2023-03-05T03:42:47.545Z,47.75
2023-03-05T03:43:47.548Z,50.28
2023-03-05T03:44:47.534Z,50.56
2023-03-05T03:45:47.593Z,49.12
2023-03-05T03:46:47.532Z,46.96
2023-03-05T03:47:47.529Z,47.51
2023-03-05T03:48:47.505Z,49.82
2023-03-05T03:49:47.497Z,52.15
2023-03-05T03:50:47.481Z,52.41
2023-03-05T03:51:47.497Z,50.30
2023-03-05T03:52:47.478Z,47.72
2023-03-05T03:53:47.584Z,50.78
2023-03-05T03:54:47.519Z,49.18
2023-03-05T03:55:47.482Z,47.95
2023-03-05T03:56:47.495Z,49.51
2023-03-05T03:57:47.477Z,46.62
2023-03-05T03:58:47.439Z,48.63
2023-03-05T03:59:47.438Z,48.02
2023-03-05T04:00:47.434Z,51.86
2023-03-05T04:01:47.419Z,51.46
2023-03-05T04:02:47.476Z,47.49
2023-03-05T04:03:47.411Z,49.28
2023-03-05T04:04:47.404Z,49.48
2023-03-05T04:05:47.391Z,47.23
2023-03-05T04:06:47.391Z,48.71
2023-03-05T04:07:47.382Z,48.86
2023-03-05T04:08:47.374Z,47.33
2023-03-05T04:09:47.431Z,49.54
2023-03-05T04:10:47.359Z,50.49
2023-03-05T04:11:48.347Z,52.66
2023-03-05T04:12:47.359Z,51.33
2023-03-05T04:13:47.343Z,49.45
2023-03-05T04:14:47.344Z,51.92
2023-03-05T04:15:47.334Z,49.06
2023-03-05T04:16:47.311Z,49.60
2023-03-05T04:17:47.332Z,47.75
2023-03-05T04:18:47.312Z,48.13
2023-03-05T04:19:47.303Z,50.86
2023-03-05T04:20:47.285Z,52.82
2023-03-05T04:21:47.359Z,50.43
2023-03-05T04:22:47.286Z,50.88
2023-03-05T04:23:47.282Z,48.62
2023-03-05T04:24:47.279Z,47.46
2023-03-05T04:25:47.260Z,47.47
2023-03-05T04:26:47.248Z,47.58
2023-03-05T04:27:47.287Z,49.42
2023-03-05T04:28:47.257Z,49.10
2023-03-05T04:29:47.232Z,48.19
2023-03-05T04:30:47.257Z,49.72
2023-03-05T04:31:47.225Z,51.24
2023-03-05T04:32:47.222Z,50.51
2023-03-05T04:33:47.224Z,49.37
2023-03-05T04:34:47.206Z,51.83
2023-03-05T04:35:47.208Z,52.35
2023-03-05T04:36:47.189Z,49.95
2023-03-05T04:37:47.192Z,50.55
2023-03-05T04:38:47.188Z,50.80
2023-03-05T04:39:47.177Z,53.27
2023-03-05T04:40:47.167Z,51.93
2023-03-05T04:41:47.151Z,52.15
2023-03-05T04:42:47.150Z,50.61
2023-03-05T04:43:47.155Z,46.70
2023-03-05T04:44:47.206Z,50.09
2023-03-05T04:45:47.138Z,53.08
2023-03-05T04:46:47.204Z,50.24
2023-03-05T04:47:47.118Z,49.21
2023-03-05T04:48:47.103Z,52.77
2023-03-05T04:49:47.128Z,53.25
2023-03-05T04:50:47.094Z,53.11
2023-03-05T04:51:47.092Z,53.65
2023-03-05T04:52:47.086Z,49.52
2023-03-05T04:53:47.067Z,52.24
2023-03-05T04:54:47.061Z,49.92
2023-03-05T04:55:47.057Z,52.16
2023-03-05T04:56:47.026Z,49.65
2023-03-05T04:57:47.056Z,48.26
2023-03-05T04:58:47.032Z,53.57
2023-03-05T04:59:47.014Z,50.72
2023-03-05T05:00:47.007Z,49.28
2023-03-05T05:01:47.121Z,51.99
2023-03-05T05:02:47.158Z,52.07
2023-03-05T05:03:47.008Z,52.68
2023-03-05T05:04:46.990Z,49.93
2023-03-05T05:05:47.013Z,50.00
2023-03-05T05:06:46.990Z,53.24
2023-03-05T05:07:46.984Z,52.93
2023-03-05T05:08:47.010Z,50.19
2023-03-05T05:09:46.997Z,51.63
2023-03-05T05:10:47.007Z,48.64
2023-03-05T05:11:46.950Z,50.92
2023-03-05T05:12:46.966Z,52.10
2023-03-05T05:13:46.943Z,53.29
2023-03-05T05:14:46.922Z,49.30
2023-03-05T05:15:46.917Z,47.12
2023-03-05T05:16:46.911Z,54.60
2023-03-05T05:17:46.911Z,49.77
2023-03-05T05:18:46.898Z,51.04
2023-03-05T05:19:46.888Z,50.88
2023-03-05T05:20:46.865Z,55.06
2023-03-05T05:21:46.882Z,50.87
2023-03-05T05:22:46.880Z,51.46
2023-03-05T05:23:46.853Z,49.56
2023-03-05T05:24:46.862Z,51.89
2023-03-05T05:25:46.850Z,53.21
2023-03-05T05:26:46.840Z,53.56
2023-03-05T05:27:46.841Z,49.16
2023-03-05T05:28:46.841Z,53.07
2023-03-05T05:29:46.821Z,51.30
2023-03-05T05:30:46.825Z,53.52
2023-03-05T05:31:46.852Z,55.11
2023-03-05T05:32:46.818Z,52.47
2023-03-05T05:33:49.582Z,49.06
2023-03-05T05:34:46.791Z,52.84
2023-03-05T05:35:46.857Z,51.51
2023-03-05T05:36:46.776Z,51.32
2023-03-05T05:37:46.783Z,53.20
2023-03-05T05:38:46.768Z,50.56
2023-03-05T05:39:46.754Z,55.03
2023-03-05T05:40:46.756Z,52.05
2023-03-05T05:41:46.745Z,50.44
2023-03-05T05:42:46.733Z,50.72
2023-03-05T05:43:46.736Z,51.06
2023-03-05T05:44:46.718Z,52.48
2023-03-05T05:45:47.874Z,47.78
2023-03-05T05:46:46.755Z,47.17
2023-03-05T05:47:46.704Z,51.90
2023-03-05T05:48:46.723Z,49.36
2023-03-05T05:49:46.698Z,53.78
2023-03-05T05:50:46.689Z,55.76
2023-03-05T05:51:46.679Z,49.18
2023-03-05T05:52:46.676Z,51.85
2023-03-05T05:53:46.688Z,49.51
2023-03-05T05:54:46.661Z,53.37
2023-03-05T05:55:46.652Z,51.52
2023-03-05T05:56:46.641Z,52.24
2023-03-05T05:57:46.634Z,49.11
2023-03-05T05:58:46.636Z,51.08
2023-03-05T05:59:46.637Z,49.50
2023-03-05T06:00:46.627Z,49.60
2023-03-05T06:01:46.636Z,52.11
2023-03-05T06:02:46.646Z,52.55
2023-03-05T06:03:46.590Z,51.79
2023-03-05T06:04:46.606Z,49.83
2023-03-05T06:05:46.589Z,48.13
2023-03-05T06:06:46.578Z,52.67
2023-03-05T06:07:46.555Z,51.33
2023-03-05T06:08:46.586Z,50.45
2023-03-05T06:09:46.565Z,49.89
2023-03-05T06:10:46.543Z,51.77
2023-03-05T06:11:46.541Z,47.40
2023-03-05T06:12:46.538Z,51.01
2023-03-05T06:13:46.539Z,53.16
2023-03-05T06:14:46.530Z,52.19
2023-03-05T06:15:46.523Z,54.62
2023-03-05T06:16:46.528Z,51.61
2023-03-05T06:17:46.528Z,50.89
2023-03-05T06:18:46.501Z,54.24
2023-03-05T06:19:46.496Z,55.59
2023-03-05T06:20:46.498Z,58.02
2023-03-05T06:21:46.483Z,55.14
2023-03-05T06:22:46.475Z,52.90
2023-03-05T06:23:46.468Z,51.73
2023-03-05T06:24:46.472Z,50.60
2023-03-05T06:25:46.452Z,51.76
2023-03-05T06:26:46.462Z,52.89
2023-03-05T06:27:46.441Z,51.41
2023-03-05T06:28:46.438Z,52.75
2023-03-05T06:29:46.428Z,51.95
2023-03-05T06:30:46.535Z,51.12
2023-03-05T06:31:46.437Z,54.30
2023-03-05T06:32:46.404Z,55.21
2023-03-05T06:33:46.387Z,52.08
2023-03-05T06:34:46.382Z,54.18
2023-03-05T06:35:46.456Z,50.70
2023-03-05T06:36:46.372Z,50.77
2023-03-05T06:37:46.374Z,54.82
2023-03-05T06:38:48.400Z,53.60
2023-03-05T06:39:46.360Z,53.56
2023-03-05T06:40:46.452Z,53.60
2023-03-05T06:41:46.347Z,51.70
2023-03-05T06:42:46.327Z,51.00
2023-03-05T06:43:46.317Z,53.21
2023-03-05T06:44:48.361Z,53.64
2023-03-05T06:45:47.370Z,50.32
2023-03-05T06:46:46.319Z,50.18
2023-03-05T06:47:46.299Z,52.14
2023-03-05T06:48:46.290Z,53.63
2023-03-05T06:49:46.283Z,51.62
2023-03-05T06:50:46.278Z,51.43
2023-03-05T06:51:46.283Z,50.21
2023-03-05T06:52:46.266Z,49.58
2023-03-05T06:53:48.312Z,51.48
2023-03-05T06:54:46.241Z,50.36
2023-03-05T06:55:46.242Z,52.20
2023-03-05T06:56:46.240Z,53.08
2023-03-05T06:57:46.246Z,51.48
2023-03-05T06:58:46.298Z,51.89
2023-03-05T06:59:46.220Z,53.27
2023-03-05T07:00:46.207Z,54.28
2023-03-05T07:01:46.211Z,53.63
2023-03-05T07:02:46.271Z,52.54
2023-03-05T07:03:46.176Z,51.42
2023-03-05T07:04:46.188Z,51.85
2023-03-05T07:05:46.180Z,50.73
2023-03-05T07:06:46.173Z,50.74
2023-03-05T07:07:46.163Z,52.32
2023-03-05T07:08:46.188Z,50.64
2023-03-05T07:09:46.156Z,52.32
2023-03-05T07:10:46.141Z,54.96
2023-03-05T07:11:46.135Z,53.47
2023-03-05T07:12:46.126Z,51.90
2023-03-05T07:13:46.146Z,54.27
2023-03-05T07:14:46.115Z,53.44
2023-03-05T07:15:46.121Z,55.53
2023-03-05T07:16:46.095Z,52.95
2023-03-05T07:17:46.090Z,55.80
2023-03-05T07:18:46.084Z,52.94
2023-03-05T07:19:46.084Z,54.24
2023-03-05T07:20:46.132Z,54.23
2023-03-05T07:21:46.067Z,53.71
2023-03-05T07:22:46.056Z,56.23
2023-03-05T07:23:46.046Z,55.66
2023-03-05T07:24:46.067Z,55.88
2023-03-05T07:25:46.046Z,54.42
2023-03-05T07:26:47.942Z,55.01
2023-03-05T07:27:46.063Z,56.30
2023-03-05T07:28:46.043Z,58.19
2023-03-05T07:29:46.011Z,56.00
2023-03-05T07:30:46.108Z,53.07
2023-03-05T07:31:46.018Z,55.47
2023-03-05T07:32:45.994Z,55.41
2023-03-05T07:33:45.996Z,55.76
2023-03-05T07:34:45.981Z,52.43
2023-03-05T07:35:46.009Z,54.56
2023-03-05T07:36:45.988Z,53.12
2023-03-05T07:37:45.965Z,52.65
2023-03-05T07:38:45.957Z,55.39
2023-03-05T07:39:47.264Z,55.99
2023-03-05T07:40:46.943Z,57.06
2023-03-05T07:41:45.935Z,56.44
2023-03-05T07:42:45.939Z,55.12
2023-03-05T07:43:45.907Z,56.03
2023-03-05T07:44:45.913Z,54.87
2023-03-05T07:45:45.950Z,56.19
2023-03-05T07:46:45.897Z,54.23
2023-03-05T07:47:45.904Z,56.60
2023-03-05T07:48:45.895Z,54.44
2023-03-05T07:49:45.880Z,55.06
2023-03-05T07:50:45.889Z,54.09
2023-03-05T07:51:45.881Z,56.70
2023-03-05T07:52:45.849Z,56.06
2023-03-05T07:53:45.858Z,52.45
2023-03-05T07:54:45.837Z,51.87
2023-03-05T07:55:45.845Z,53.14
2023-03-05T07:56:45.840Z,55.40
2023-03-05T07:57:45.842Z,54.59
2023-03-05T07:58:45.811Z,52.58
2023-03-05T07:59:45.810Z,54.28
2023-03-05T08:00:45.812Z,55.84
2023-03-05T08:01:45.813Z,55.12
2023-03-05T08:02:45.810Z,53.90
2023-03-05T08:03:45.827Z,53.70
2023-03-05T08:04:45.780Z,56.32
2023-03-05T08:05:46.146Z,54.07
2023-03-05T08:06:45.816Z,55.32
2023-03-05T08:07:45.746Z,58.84
2023-03-05T08:08:45.755Z,56.90
2023-03-05T08:09:45.749Z,56.76
2023-03-05T08:10:45.724Z,56.03
2023-03-05T08:11:45.728Z,56.40
2023-03-05T08:12:45.729Z,53.99
2023-03-05T08:13:45.723Z,56.22
2023-03-05T08:14:45.734Z,56.69
2023-03-05T08:15:45.732Z,52.78
2023-03-05T08:16:47.880Z,56.36
2023-03-05T08:17:46.690Z,55.46
2023-03-05T08:18:45.676Z,56.66
2023-03-05T08:19:45.688Z,56.23
2023-03-05T08:20:45.664Z,58.78
2023-03-05T08:21:45.663Z,53.74
2023-03-05T08:22:45.679Z,57.12
2023-03-05T08:23:45.685Z,55.95
2023-03-05T08:24:45.645Z,52.92
2023-03-05T08:25:45.639Z,53.54
2023-03-05T08:26:45.637Z,57.20
2023-03-05T08:27:45.630Z,57.35
2023-03-05T08:28:45.631Z,58.45
2023-03-05T08:29:45.617Z,55.36
2023-03-05T08:30:45.600Z,55.14
2023-03-05T08:31:45.599Z,56.32
2023-03-05T08:32:45.602Z,56.11
2023-03-05T08:33:45.584Z,56.99
2023-03-05T08:34:45.594Z,55.05
2023-03-05T08:35:45.602Z,56.96
2023-03-05T08:36:45.558Z,53.95
2023-03-05T08:37:45.559Z,54.41
2023-03-05T08:38:45.551Z,55.65
2023-03-05T08:39:45.600Z,55.69
2023-03-05T08:40:45.539Z,54.80
2023-03-05T08:41:45.535Z,52.30
2023-03-05T08:42:45.520Z,52.74
2023-03-05T08:43:45.521Z,52.73
2023-03-05T08:44:45.524Z,52.21
2023-03-05T08:45:45.511Z,53.48
2023-03-05T08:46:45.582Z,52.57
2023-03-05T08:47:45.496Z,51.50
2023-03-05T08:48:45.500Z,52.79
2023-03-05T08:49:45.483Z,52.39
2023-03-05T08:50:45.472Z,53.93
2023-03-05T08:51:45.467Z,52.12
2023-03-05T08:52:45.469Z,54.07
2023-03-05T08:53:45.454Z,54.61
2023-03-05T08:54:45.453Z,53.33
2023-03-05T08:55:45.452Z,51.92
2023-03-05T08:56:45.436Z,53.30
2023-03-05T08:57:45.449Z,53.20
2023-03-05T08:58:45.430Z,52.97
2023-03-05T08:59:46.415Z,55.83
2023-03-05T09:00:45.412Z,58.13
2023-03-05T09:01:45.507Z,51.82
2023-03-05T09:02:45.429Z,51.41
2023-03-05T09:03:45.397Z,50.83
2023-03-05T09:04:45.386Z,51.71
2023-03-05T09:05:45.367Z,53.86
2023-03-05T09:06:46.402Z,53.25
2023-03-05T09:07:45.352Z,53.39
2023-03-05T09:08:45.364Z,52.99
2023-03-05T09:09:45.344Z,53.38
2023-03-05T09:10:45.342Z,53.37
2023-03-05T09:11:45.334Z,51.79
2023-03-05T09:12:45.323Z,53.19
2023-03-05T09:13:45.326Z,53.86
2023-03-05T09:14:45.309Z,52.19
2023-03-05T09:15:45.311Z,52.79
2023-03-05T09:16:45.367Z,53.39
2023-03-05T09:17:45.289Z,55.08
2023-03-05T09:18:45.291Z,54.24
2023-03-05T09:19:45.276Z,54.87
2023-03-05T09:20:45.268Z,52.99
2023-03-05T09:21:45.263Z,55.10
2023-03-05T09:22:45.244Z,55.01
2023-03-05T09:23:45.246Z,57.42
2023-03-05T09:24:45.243Z,55.88
2023-03-05T09:25:45.215Z,52.94
2023-03-05T09:26:45.246Z,53.96
2023-03-05T09:27:45.218Z,53.14
2023-03-05T09:28:45.210Z,54.47
2023-03-05T09:29:45.209Z,55.15
2023-03-05T09:30:45.201Z,54.49
2023-03-05T09:31:45.248Z,55.07
2023-03-05T09:32:45.201Z,55.15
2023-03-05T09:33:45.177Z,54.57
2023-03-05T09:34:45.158Z,56.38
2023-03-05T09:35:45.199Z,56.51
2023-03-05T09:36:45.164Z,56.26
2023-03-05T09:37:45.148Z,56.20
2023-03-05T09:38:45.137Z,56.56
2023-03-05T09:39:45.133Z,57.11
2023-03-05T09:40:45.137Z,55.19
2023-03-05T09:41:45.106Z,56.36
2023-03-05T09:42:45.189Z,56.54
2023-03-05T09:43:45.099Z,55.31
2023-03-05T09:44:45.150Z,56.85
2023-03-05T09:45:45.131Z,54.67
2023-03-05T09:46:45.082Z,56.12
2023-03-05T09:47:45.099Z,56.08
2023-03-05T09:48:45.077Z,55.44
2023-03-05T09:49:45.057Z,54.32
2023-03-05T09:50:45.057Z,53.46
2023-03-05T09:51:45.063Z,54.33
2023-03-05T09:52:45.070Z,54.43
2023-03-05T09:53:45.048Z,53.53
2023-03-05T09:54:45.035Z,55.82
2023-03-05T09:55:45.031Z,54.63
2023-03-05T09:56:45.007Z,56.83
2023-03-05T09:57:45.011Z,55.85
2023-03-05T09:58:45.006Z,55.08
2023-03-05T09:59:45.007Z,56.17
2023-03-05T10:00:44.987Z,53.17
2023-03-05T10:01:44.973Z,52.79
2023-03-05T10:02:45.007Z,53.38
2023-03-05T10:03:44.979Z,53.39
2023-03-05T10:04:44.980Z,52.51
2023-03-05T10:05:44.947Z,53.35
2023-03-05T10:06:44.949Z,52.99
2023-03-05T10:07:44.937Z,52.55
2023-03-05T10:08:44.925Z,53.63
2023-03-05T10:09:44.969Z,52.88
2023-03-05T10:10:44.926Z,54.33
2023-03-05T10:11:44.908Z,54.72
2023-03-05T10:12:45.900Z,54.99
2023-03-05T10:13:44.884Z,54.43
2023-03-05T10:14:44.901Z,57.39
2023-03-05T10:15:44.877Z,53.81
2023-03-05T10:16:44.889Z,54.31
2023-03-05T10:17:44.882Z,54.08
2023-03-05T10:18:44.861Z,55.07
2023-03-05T10:19:44.860Z,53.92
2023-03-05T10:20:44.853Z,54.33
2023-03-05T10:21:44.857Z,55.19
2023-03-05T10:22:44.831Z,54.88
2023-03-05T10:23:44.826Z,55.45
2023-03-05T10:24:44.836Z,56.29
2023-03-05T10:25:44.827Z,54.69
2023-03-05T10:26:44.799Z,54.82
2023-03-05T10:27:45.797Z,54.78
2023-03-05T10:28:44.794Z,55.28
2023-03-05T10:29:44.780Z,54.77
2023-03-05T10:30:44.778Z,55.01
2023-03-05T10:31:44.884Z,54.43
2023-03-05T10:32:44.790Z,60.72
2023-03-05T10:33:44.755Z,57.60
2023-03-05T10:34:44.752Z,55.89
2023-03-05T10:35:44.780Z,56.10
2023-03-05T10:36:44.732Z,56.21
2023-03-05T10:37:44.738Z,56.72
2023-03-05T10:38:44.861Z,55.86
2023-03-05T10:39:44.793Z,57.02
2023-03-05T10:40:44.705Z,58.40
2023-03-05T10:41:44.701Z,57.58
2023-03-05T10:42:44.684Z,56.82
2023-03-05T10:43:44.693Z,57.31
2023-03-05T10:44:44.684Z,56.98
2023-03-05T10:45:44.763Z,56.93
2023-03-05T10:46:44.668Z,55.44
2023-03-05T10:47:44.656Z,60.21
2023-03-05T10:48:44.678Z,59.71
2023-03-05T10:49:44.645Z,58.34
2023-03-05T10:50:44.645Z,58.85
2023-03-05T10:51:44.660Z,57.02
2023-03-05T10:52:44.621Z,58.20
2023-03-05T10:53:44.613Z,58.43
2023-03-05T10:54:44.612Z,56.75
2023-03-05T10:55:44.608Z,58.29
2023-03-05T10:56:44.602Z,57.51
2023-03-05T10:57:44.601Z,58.18
2023-03-05T10:58:44.591Z,55.94
2023-03-05T10:59:44.578Z,55.62
2023-03-05T11:00:44.591Z,57.50
2023-03-05T11:01:44.577Z,58.13
2023-03-05T11:02:44.633Z,56.53
2023-03-05T11:03:45.548Z,56.92
2023-03-05T11:04:44.565Z,55.20
2023-03-05T11:05:44.547Z,55.99
2023-03-05T11:06:44.541Z,56.70
2023-03-05T11:07:44.513Z,57.78
2023-03-05T11:08:44.509Z,55.20
2023-03-05T11:09:44.502Z,55.78
2023-03-05T11:10:44.513Z,57.98
2023-03-05T11:11:44.496Z,58.47
2023-03-05T11:12:44.469Z,57.48
2023-03-05T11:13:44.501Z,57.25
2023-03-05T11:14:44.471Z,57.45
2023-03-05T11:15:44.483Z,57.35
2023-03-05T11:16:44.448Z,58.37
2023-03-05T11:17:44.443Z,57.61
2023-03-05T11:18:44.467Z,54.44
2023-03-05T11:19:44.432Z,57.42
2023-03-05T11:20:44.420Z,58.36
2023-03-05T11:21:44.413Z,58.59
2023-03-05T11:22:44.398Z,57.76
2023-03-05T11:23:44.395Z,57.87
2023-03-05T11:24:44.416Z,58.73
2023-03-05T11:25:44.418Z,57.89
2023-03-05T11:26:44.373Z,58.18
2023-03-05T11:27:44.398Z,57.45
2023-03-05T11:28:44.354Z,60.34
2023-03-05T11:29:44.378Z,57.54
2023-03-05T11:30:44.349Z,57.92
2023-03-05T11:31:44.336Z,59.15
2023-03-05T11:32:44.321Z,58.84
2023-03-05T11:33:44.326Z,57.40
2023-03-05T11:34:44.328Z,58.85
2023-03-05T11:35:44.413Z,58.26
2023-03-05T11:36:44.301Z,58.69
2023-03-05T11:37:44.294Z,59.37
2023-03-05T11:38:44.305Z,60.45
2023-03-05T11:39:44.315Z,60.04
2023-03-05T11:40:44.291Z,58.24
2023-03-05T11:41:44.262Z,58.55
2023-03-05T11:42:44.324Z,58.99
2023-03-05T11:43:44.242Z,59.47
2023-03-05T11:44:44.258Z,58.44
2023-03-05T11:45:44.232Z,57.73
2023-03-05T11:46:44.258Z,58.12
2023-03-05T11:47:44.221Z,57.97
2023-03-05T11:48:44.208Z,58.01
2023-03-05T11:49:44.196Z,58.88
2023-03-05T11:50:44.279Z,59.28
2023-03-05T11:51:44.215Z,58.51
2023-03-05T11:52:44.177Z,60.50
2023-03-05T11:53:44.173Z,57.99
2023-03-05T11:54:44.188Z,56.86
2023-03-05T11:55:44.168Z,57.89
2023-03-05T11:56:44.173Z,57.74
2023-03-05T11:57:44.153Z,57.69
2023-03-05T11:58:44.150Z,57.83
2023-03-05T11:59:44.142Z,57.89
2023-03-05T12:00:44.151Z,58.69
2023-03-05T12:01:44.148Z,56.99
2023-03-05T12:02:44.165Z,58.81
2023-03-05T12:03:44.166Z,56.78
2023-03-05T12:04:44.116Z,57.01
2023-03-05T12:05:44.109Z,57.32
2023-03-05T12:06:44.520Z,57.54
2023-03-05T12:07:44.087Z,58.33
2023-03-05T12:08:44.080Z,57.87
2023-03-05T12:09:44.248Z,58.00
2023-03-05T12:10:44.409Z,58.17
2023-03-05T12:11:44.691Z,57.81
2023-03-05T12:12:44.596Z,57.51
2023-03-05T12:13:44.056Z,57.07
2023-03-05T12:14:44.047Z,56.35
2023-03-05T12:15:44.054Z,57.73
2023-03-05T12:16:44.031Z,56.47
2023-03-05T12:17:44.592Z,56.34
2023-03-05T12:18:44.010Z,59.63
2023-03-05T12:19:43.994Z,58.16
2023-03-05T12:20:44.360Z,58.22
2023-03-05T12:21:44.540Z,58.32
2023-03-05T12:22:44.546Z,58.45
2023-03-05T12:23:44.335Z,58.30
2023-03-05T12:24:43.981Z,59.82
2023-03-05T12:25:44.259Z,59.79
2023-03-05T12:26:44.279Z,57.80
2023-03-05T12:27:44.044Z,59.26
2023-03-05T12:28:44.377Z,59.19
2023-03-05T12:29:44.066Z,58.00
2023-03-05T12:30:43.976Z,58.64
2023-03-05T12:31:44.038Z,58.99
2023-03-05T12:32:44.030Z,58.83
2023-03-05T12:33:43.946Z,58.69
2023-03-05T12:34:44.191Z,60.23
2023-03-05T12:35:45.290Z,59.51
2023-03-05T12:36:44.054Z,58.40
2023-03-05T12:37:44.077Z,58.29
2023-03-05T12:38:43.908Z,58.62
2023-03-05T12:39:44.064Z,57.57
2023-03-05T12:40:43.976Z,59.28
2023-03-05T12:41:44.319Z,58.11
2023-03-05T12:42:43.878Z,58.30
2023-03-05T12:43:43.876Z,57.96
2023-03-05T12:44:43.888Z,57.87
2023-03-05T12:45:43.909Z,59.08
2023-03-05T12:46:43.940Z,58.51
2023-03-05T12:47:43.873Z,59.00
2023-03-05T12:48:43.871Z,59.21
2023-03-05T12:49:43.808Z,58.69
2023-03-05T12:50:43.849Z,57.68
2023-03-05T12:51:43.934Z,56.94
2023-03-05T12:52:43.841Z,59.46